createdAt,value
2017-09-08T00:00:27.073Z,8.47
2017-09-08T00:02:54.373Z,8.23
2017-09-08T00:05:21.657Z,7.63
2017-09-08T00:07:49.007Z,6.63
2017-09-08T00:10:16.293Z,6.90
2017-09-08T00:12:43.574Z,7.77
2017-09-08T00:15:10.900Z,6.73
2017-09-08T00:17:38.170Z,6.80
2017-09-08T00:20:05.452Z,7.37
2017-09-08T00:22:32.752Z,6.80
2017-09-08T00:25:00.021Z,7.70
2017-09-08T00:27:28.357Z,8.10
2017-09-08T00:29:55.722Z,7.00
2017-09-08T00:32:23.018Z,7.80
2017-09-08T00:34:50.285Z,7.20
2017-09-08T00:37:17.568Z,6.97
2017-09-08T00:39:44.878Z,7.93
2017-09-08T00:42:12.191Z,8.00
2017-09-08T00:44:39.450Z,7.07
2017-09-08T00:47:06.723Z,7.57
2017-09-08T00:49:34.044Z,7.87
2017-09-08T00:52:01.359Z,6.90
2017-09-08T00:54:28.623Z,6.37
2017-09-08T00:56:55.935Z,7.33
2017-09-08T00:59:23.250Z,7.67
2017-09-08T01:01:50.552Z,6.70
2017-09-08T01:04:17.819Z,7.23
2017-09-08T01:06:45.111Z,7.27
2017-09-08T01:09:12.415Z,7.53
2017-09-08T01:11:39.731Z,7.27
2017-09-08T01:14:07.011Z,7.60
2017-09-08T01:16:34.415Z,8.37
2017-09-08T01:19:01.683Z,7.17
2017-09-08T01:21:28.955Z,6.03
2017-09-08T01:23:56.256Z,7.73
2017-09-08T01:26:23.543Z,7.70
2017-09-08T01:28:50.850Z,7.90
2017-09-08T01:31:18.151Z,7.63
2017-09-08T01:33:45.452Z,7.13
2017-09-08T01:36:12.756Z,7.37
2017-09-08T01:38:40.029Z,6.77
2017-09-08T01:41:07.342Z,7.93
2017-09-08T01:43:34.629Z,7.83
2017-09-08T01:46:01.933Z,8.07
2017-09-08T01:48:29.369Z,7.80
2017-09-08T01:50:56.667Z,7.30
2017-09-08T01:53:23.977Z,6.80
2017-09-08T01:55:51.287Z,7.23
2017-09-08T01:58:18.595Z,7.73
2017-09-08T02:00:45.883Z,8.10
2017-09-08T02:03:13.183Z,7.13
2017-09-08T02:05:40.462Z,8.37
2017-09-08T02:08:07.767Z,7.27
2017-09-08T02:10:35.105Z,7.30
2017-09-08T02:13:02.419Z,7.20
2017-09-08T02:15:29.687Z,7.60
2017-09-08T02:17:56.965Z,8.43
2017-09-08T02:20:24.267Z,6.80
2017-09-08T02:22:51.583Z,6.60
2017-09-08T02:25:18.869Z,7.07
2017-09-08T02:27:46.191Z,7.83
2017-09-08T02:30:13.471Z,8.10
2017-09-08T02:32:40.786Z,7.30
2017-09-08T02:35:08.059Z,6.77
2017-09-08T02:37:35.373Z,7.27
2017-09-08T02:40:02.695Z,7.10
2017-09-08T02:42:29.965Z,6.90
2017-09-08T02:44:57.289Z,8.20
2017-09-08T02:47:24.588Z,7.37
2017-09-08T02:49:51.880Z,6.20
2017-09-08T02:52:19.197Z,7.20
2017-09-08T02:54:46.477Z,5.93
2017-09-08T02:57:13.772Z,6.73
2017-09-08T02:59:41.063Z,6.53
2017-09-08T03:02:08.392Z,6.50
2017-09-08T03:04:35.631Z,7.10
2017-09-08T03:07:02.932Z,6.87
2017-09-08T03:09:30.200Z,6.80
2017-09-08T03:11:57.506Z,6.60
2017-09-08T03:14:24.781Z,6.80
2017-09-08T03:16:52.049Z,7.30
2017-09-08T03:19:19.351Z,6.97
2017-09-08T03:21:46.637Z,6.07
2017-09-08T03:24:13.915Z,7.83
2017-09-08T03:26:41.214Z,7.33
2017-09-08T03:29:08.480Z,6.80
2017-09-08T03:31:35.808Z,6.90
2017-09-08T03:34:03.077Z,7.40
2017-09-08T03:36:30.361Z,7.40
2017-09-08T03:38:57.662Z,7.40
2017-09-08T03:41:24.948Z,6.80
2017-09-08T03:43:52.995Z,6.57
2017-09-08T03:46:20.275Z,7.00
2017-09-08T03:48:47.547Z,6.90
2017-09-08T03:51:14.859Z,7.47
2017-09-08T03:53:42.129Z,6.87
2017-09-08T03:56:09.424Z,8.33
2017-09-08T03:58:36.742Z,7.40
2017-09-08T04:01:04.027Z,7.37
2017-09-08T04:03:31.353Z,7.10
2017-09-08T04:05:58.644Z,6.30
2017-09-08T04:08:25.964Z,7.10
2017-09-08T04:10:53.231Z,6.60
2017-09-08T04:13:20.549Z,6.90
2017-09-08T04:15:47.829Z,7.27
2017-09-08T04:18:15.098Z,6.70
2017-09-08T04:20:42.405Z,6.30
2017-09-08T04:23:09.714Z,8.23
2017-09-08T04:25:37.036Z,6.63
2017-09-08T04:28:04.352Z,7.37
2017-09-08T04:30:31.627Z,7.20
2017-09-08T04:32:58.928Z,7.87
2017-09-08T04:35:26.207Z,6.27
2017-09-08T04:37:53.989Z,6.90
2017-09-08T04:40:21.470Z,7.40
2017-09-08T04:42:48.832Z,7.40
2017-09-08T04:45:16.290Z,7.60
2017-09-08T04:47:43.594Z,6.80
2017-09-08T04:50:10.871Z,6.97
2017-09-08T04:52:38.181Z,6.03
2017-09-08T04:55:05.980Z,7.00
2017-09-08T04:57:33.293Z,6.10
2017-09-08T05:00:00.576Z,7.03
2017-09-08T05:02:27.882Z,6.83
2017-09-08T05:04:55.197Z,6.33
2017-09-08T05:07:22.473Z,7.17
2017-09-08T05:09:49.739Z,6.97
2017-09-08T05:12:17.032Z,6.83
2017-09-08T05:14:44.299Z,7.33
2017-09-08T05:17:11.639Z,7.50
2017-09-08T05:19:39.234Z,8.17
2017-09-08T05:22:06.500Z,5.90
2017-09-08T05:24:33.774Z,5.40
2017-09-08T05:27:01.085Z,8.53
2017-09-08T05:29:28.400Z,6.40
2017-09-08T05:31:55.819Z,6.70
2017-09-08T05:34:23.267Z,6.83
2017-09-08T05:36:50.583Z,6.30
2017-09-08T05:39:17.861Z,6.90
2017-09-08T05:41:45.180Z,6.90
2017-09-08T05:44:12.451Z,7.27
2017-09-08T05:46:39.711Z,8.30
2017-09-08T05:49:07.002Z,7.90
2017-09-08T05:51:34.500Z,8.13
2017-09-08T05:54:01.931Z,6.53
2017-09-08T05:56:29.205Z,5.93
2017-09-08T05:58:56.514Z,8.70
2017-09-08T06:01:23.795Z,6.50
2017-09-08T06:03:51.092Z,7.23
2017-09-08T06:06:18.373Z,6.17
2017-09-08T06:08:45.675Z,6.03
2017-09-08T06:11:12.942Z,6.40
2017-09-08T06:13:40.260Z,6.30
2017-09-08T06:16:07.538Z,6.47
2017-09-08T06:18:34.847Z,7.03
2017-09-08T06:21:02.155Z,6.63
2017-09-08T06:23:29.430Z,5.97
2017-09-08T06:25:56.701Z,6.87
2017-09-08T06:28:24.016Z,7.83
2017-09-08T06:30:51.295Z,6.57
2017-09-08T06:33:18.602Z,5.77
2017-09-08T06:35:45.875Z,6.47
2017-09-08T06:38:13.175Z,7.20
2017-09-08T06:40:40.459Z,6.33
2017-09-08T06:43:07.772Z,6.40
2017-09-08T06:45:35.038Z,6.50
2017-09-08T06:48:02.385Z,6.07
2017-09-08T06:50:29.655Z,5.30
2017-09-08T06:52:56.927Z,5.90
2017-09-08T06:55:24.249Z,6.70
2017-09-08T06:57:51.558Z,6.53
2017-09-08T07:00:18.823Z,6.10
2017-09-08T07:02:46.243Z,6.73
2017-09-08T07:05:13.509Z,6.20
2017-09-08T07:07:40.784Z,5.20
2017-09-08T07:10:08.105Z,6.90
2017-09-08T07:12:35.376Z,5.53
2017-09-08T07:15:02.647Z,6.90
2017-09-08T07:17:29.962Z,6.77
2017-09-08T07:19:57.256Z,6.53
2017-09-08T07:22:24.574Z,6.70
2017-09-08T07:24:51.846Z,6.07
2017-09-08T07:27:19.147Z,4.80
2017-09-08T07:29:46.441Z,5.50
2017-09-08T07:32:13.736Z,6.00
2017-09-08T07:34:41.022Z,5.60
2017-09-08T07:37:08.684Z,6.23
2017-09-08T07:39:35.939Z,5.40
2017-09-08T07:42:03.275Z,5.73
2017-09-08T07:44:30.543Z,5.93
2017-09-08T07:46:58.047Z,7.47
2017-09-08T07:49:25.348Z,6.10
2017-09-08T07:51:52.647Z,5.57
2017-09-08T07:54:19.920Z,6.60
2017-09-08T07:56:47.218Z,6.80
2017-09-08T07:59:14.492Z,6.67
2017-09-08T08:01:41.976Z,6.33
2017-09-08T08:04:09.293Z,6.83
2017-09-08T08:06:36.556Z,5.90
2017-09-08T08:09:03.873Z,6.30
2017-09-08T08:11:31.198Z,6.00
2017-09-08T08:13:58.466Z,6.10
2017-09-08T08:16:25.775Z,6.50
2017-09-08T08:18:53.058Z,5.43
2017-09-08T08:21:20.344Z,6.10
2017-09-08T08:23:47.659Z,5.23
2017-09-08T08:26:15.040Z,5.50
2017-09-08T08:28:42.444Z,6.00
2017-09-08T08:31:09.722Z,6.60
2017-09-08T08:33:36.997Z,6.10
2017-09-08T08:36:04.306Z,6.40
2017-09-08T08:38:31.654Z,5.67
2017-09-08T08:40:58.924Z,5.10
2017-09-08T08:43:26.195Z,5.27
2017-09-08T08:45:53.508Z,5.10
2017-09-08T08:48:20.785Z,4.80
2017-09-08T08:50:48.093Z,5.40
2017-09-08T08:53:15.360Z,5.93
2017-09-08T08:55:42.652Z,4.70
2017-09-08T08:58:10.236Z,4.60
2017-09-08T09:00:37.561Z,5.00
2017-09-08T09:03:04.957Z,5.73
2017-09-08T09:05:32.407Z,5.27
2017-09-08T09:07:59.710Z,5.60
2017-09-08T09:10:27.035Z,4.77
2017-09-08T09:12:54.334Z,5.17
2017-09-08T09:15:21.627Z,5.03
2017-09-08T09:17:48.900Z,4.90
2017-09-08T09:20:16.203Z,5.50
2017-09-08T09:22:43.535Z,5.33
2017-09-08T09:25:10.783Z,5.07
2017-09-08T09:27:38.052Z,5.10
2017-09-08T09:30:05.358Z,4.90
2017-09-08T09:32:32.885Z,4.47
2017-09-08T09:35:00.409Z,5.27
2017-09-08T09:37:27.999Z,4.80
2017-09-08T09:39:55.768Z,5.23
2017-09-08T09:42:23.385Z,5.17
2017-09-08T09:44:51.338Z,5.40
2017-09-08T09:47:18.917Z,5.10
2017-09-08T09:49:46.613Z,5.90
2017-09-08T09:52:14.525Z,4.97
2017-09-08T09:54:42.052Z,4.40
2017-09-08T09:57:09.563Z,4.37
2017-09-08T09:59:37.048Z,5.83
2017-09-08T10:02:05.603Z,5.30
2017-09-08T10:04:33.109Z,5.03
2017-09-08T10:07:00.579Z,5.60
2017-09-08T10:09:28.794Z,5.13
2017-09-08T10:11:56.338Z,5.43
2017-09-08T10:14:23.844Z,5.20
2017-09-08T10:16:51.354Z,5.20
2017-09-08T10:19:19.994Z,5.87
2017-09-08T10:21:47.468Z,5.30
2017-09-08T10:24:14.939Z,5.77
2017-09-08T10:26:42.485Z,4.67
2017-09-08T10:29:10.127Z,6.00
2017-09-08T10:31:37.637Z,5.83
2017-09-08T10:34:05.197Z,5.47
2017-09-08T10:36:32.709Z,4.50
2017-09-08T10:39:00.172Z,5.33
2017-09-08T10:41:27.682Z,5.50
2017-09-08T10:43:55.165Z,5.97
2017-09-08T10:46:22.679Z,5.67
2017-09-08T10:48:50.308Z,5.10
2017-09-08T10:51:17.886Z,5.00
2017-09-08T10:53:45.368Z,5.90
2017-09-08T10:56:13.734Z,5.50
2017-09-08T10:58:41.737Z,5.87
2017-09-08T11:01:09.320Z,5.53
2017-09-08T11:03:37.792Z,5.57
2017-09-08T11:06:05.286Z,5.87
2017-09-08T11:08:32.885Z,5.70
2017-09-08T11:11:01.223Z,5.50
2017-09-08T11:13:28.717Z,5.10
2017-09-08T11:15:56.507Z,5.90
2017-09-08T11:18:23.984Z,4.97
2017-09-08T11:20:51.590Z,6.03
2017-09-08T11:23:19.201Z,5.13
2017-09-08T11:25:46.534Z,5.23
2017-09-08T11:28:13.817Z,6.27
2017-09-08T11:30:41.118Z,6.20
2017-09-08T11:33:14.186Z,5.07
2017-09-08T11:35:47.107Z,5.60
2017-09-08T11:38:14.479Z,6.13
2017-09-08T11:40:41.752Z,4.83
2017-09-08T11:43:09.027Z,5.20
2017-09-08T11:45:36.334Z,5.50
2017-09-08T11:48:03.635Z,5.10
2017-09-08T11:50:30.930Z,5.67
2017-09-08T11:52:58.250Z,5.73
2017-09-08T11:55:25.527Z,5.30
2017-09-08T11:57:52.795Z,5.53
2017-09-08T12:00:20.103Z,5.90
2017-09-08T12:02:47.372Z,5.40
2017-09-08T12:05:14.674Z,4.83
2017-09-08T12:07:41.956Z,4.80
2017-09-08T12:10:09.276Z,5.07
2017-09-08T12:12:36.557Z,5.10
2017-09-08T12:15:03.834Z,4.77
2017-09-08T12:17:31.142Z,4.53
2017-09-08T12:19:58.416Z,4.77
2017-09-08T12:22:25.695Z,5.53
2017-09-08T12:24:53.022Z,4.37
2017-09-08T12:27:20.312Z,4.87
2017-09-08T12:29:47.616Z,4.90
2017-09-08T12:32:14.887Z,4.80
2017-09-08T12:34:42.174Z,4.37
2017-09-08T12:37:09.455Z,4.83
2017-09-08T12:39:36.764Z,4.30
2017-09-08T12:42:04.033Z,5.07
2017-09-08T12:44:31.313Z,3.90
2017-09-08T12:46:58.609Z,4.43
2017-09-08T12:49:25.912Z,4.53
2017-09-08T12:51:53.176Z,4.87
2017-09-08T12:54:20.496Z,3.80
2017-09-08T12:56:47.775Z,5.37
2017-09-08T12:59:15.227Z,5.03
2017-09-08T13:01:42.994Z,4.53
2017-09-08T13:04:10.541Z,3.90
2017-09-08T13:06:38.034Z,4.27
2017-09-08T13:09:05.591Z,4.27
2017-09-08T13:11:33.707Z,4.50
2017-09-08T13:14:01.181Z,4.90
2017-09-08T13:16:28.803Z,4.43
2017-09-08T13:18:56.290Z,4.10
2017-09-08T13:21:23.788Z,4.10
2017-09-08T13:23:51.266Z,4.43
2017-09-08T13:26:18.759Z,4.23
2017-09-08T13:28:46.154Z,4.23
2017-09-08T13:31:13.684Z,4.70
2017-09-08T13:33:41.121Z,4.30
2017-09-08T13:36:09.464Z,4.00
2017-09-08T13:38:36.967Z,4.47
2017-09-08T13:41:06.011Z,4.30
2017-09-08T13:43:33.631Z,3.97
2017-09-08T13:46:01.033Z,3.87
2017-09-08T13:48:28.556Z,3.63
2017-09-08T13:50:56.302Z,4.00
2017-09-08T13:53:23.699Z,3.40
2017-09-08T13:55:51.148Z,3.60
2017-09-08T13:58:18.618Z,3.73
2017-09-08T14:00:46.056Z,3.47
2017-09-08T14:03:13.648Z,3.93
2017-09-08T14:05:41.130Z,4.13
2017-09-08T14:08:08.577Z,4.00
2017-09-08T14:10:36.117Z,3.67
2017-09-08T14:13:03.636Z,3.57
2017-09-08T14:15:31.089Z,3.70
2017-09-08T14:17:59.350Z,3.40
2017-09-08T14:20:26.945Z,3.10
2017-09-08T14:22:54.434Z,3.70
2017-09-08T14:25:21.884Z,4.50
2017-09-08T14:27:49.335Z,4.20
2017-09-08T14:30:16.809Z,3.53
2017-09-08T14:32:44.238Z,4.07
2017-09-08T14:35:11.754Z,3.50
2017-09-08T14:37:39.275Z,4.20
2017-09-08T14:40:06.783Z,4.07
2017-09-08T14:42:34.308Z,3.57
2017-09-08T14:45:02.116Z,3.03
2017-09-08T14:47:29.439Z,3.90
2017-09-08T14:49:56.732Z,3.77
2017-09-08T14:52:24.011Z,3.20
2017-09-08T14:54:51.307Z,3.63
2017-09-08T14:57:18.587Z,4.80
2017-09-08T14:59:45.879Z,3.57
2017-09-08T15:02:13.146Z,3.90
2017-09-08T15:04:40.422Z,4.10
2017-09-08T15:07:07.707Z,3.30
2017-09-08T15:09:34.986Z,4.03
2017-09-08T15:12:02.278Z,3.50
2017-09-08T15:14:29.536Z,3.20
2017-09-08T15:16:56.831Z,3.10
2017-09-08T15:19:24.099Z,4.10
2017-09-08T15:21:51.395Z,3.17
2017-09-08T15:24:18.667Z,3.10
2017-09-08T15:26:45.948Z,3.23
2017-09-08T15:29:13.212Z,3.23
2017-09-08T15:31:40.505Z,2.83
2017-09-08T15:34:07.759Z,3.43
2017-09-08T15:36:35.049Z,2.70
2017-09-08T15:39:02.340Z,2.67
2017-09-08T15:41:29.608Z,2.60
2017-09-08T15:43:57.098Z,3.00
2017-09-08T15:46:24.363Z,2.90
2017-09-08T15:48:51.632Z,2.67
2017-09-08T15:51:18.913Z,2.90
2017-09-08T15:53:46.180Z,3.03
2017-09-08T15:56:13.466Z,3.00
2017-09-08T15:58:40.741Z,2.80
2017-09-08T16:01:08.018Z,2.40
2017-09-08T16:06:28.943Z,2.53
2017-09-08T16:08:56.211Z,2.83
2017-09-08T16:11:23.484Z,2.67
2017-09-08T16:13:50.775Z,2.70
2017-09-08T16:16:18.035Z,2.73
2017-09-08T16:18:45.343Z,2.20
2017-09-08T16:21:12.602Z,2.40
2017-09-08T16:23:39.889Z,2.70
2017-09-08T16:26:07.151Z,2.43
2017-09-08T16:28:34.431Z,2.70
2017-09-08T16:31:01.691Z,2.57
2017-09-08T16:33:28.980Z,3.17
2017-09-08T16:35:56.255Z,2.63
2017-09-08T16:38:23.541Z,2.63
2017-09-08T16:40:50.827Z,2.53
2017-09-08T16:43:18.358Z,2.77
2017-09-08T16:45:46.235Z,2.57
2017-09-08T16:48:14.131Z,2.60
2017-09-08T16:50:41.727Z,3.10
2017-09-08T16:53:09.567Z,2.70
2017-09-08T16:55:37.215Z,2.77
2017-09-08T16:58:04.721Z,2.73
2017-09-08T17:00:33.267Z,2.63
2017-09-08T17:03:00.624Z,3.03
2017-09-08T17:05:27.932Z,3.13
2017-09-08T17:07:55.195Z,3.53
2017-09-08T17:10:22.463Z,3.30
2017-09-08T17:12:49.757Z,2.93
2017-09-08T17:15:17.061Z,3.13
2017-09-08T17:17:44.367Z,3.17
2017-09-08T17:20:11.622Z,2.93
2017-09-08T17:22:38.887Z,3.40
2017-09-08T17:25:06.223Z,3.30
2017-09-08T17:27:33.495Z,3.10
2017-09-08T17:30:00.759Z,3.27
2017-09-08T17:32:28.274Z,3.27
2017-09-08T17:34:56.427Z,3.53
2017-09-08T17:37:24.161Z,3.37
2017-09-08T17:39:51.864Z,3.10
2017-09-08T17:42:19.433Z,3.10
2017-09-08T17:44:46.936Z,3.33
2017-09-08T17:47:14.463Z,3.37
2017-09-08T17:49:42.008Z,3.00
2017-09-08T17:52:09.491Z,3.33
2017-09-08T17:54:37.870Z,3.20
2017-09-08T17:57:05.368Z,3.63
2017-09-08T17:59:33.751Z,3.10
2017-09-08T18:02:01.240Z,2.97
2017-09-08T18:04:28.825Z,3.30
2017-09-08T18:06:56.417Z,3.17
2017-09-08T18:09:24.412Z,3.10
2017-09-08T18:11:51.697Z,3.97
2017-09-08T18:14:19.949Z,2.77
2017-09-08T18:16:47.219Z,3.57
2017-09-08T18:19:14.543Z,3.60
2017-09-08T18:21:41.803Z,3.30
2017-09-08T18:24:09.079Z,3.10
2017-09-08T18:26:36.378Z,3.60
2017-09-08T18:29:03.677Z,3.10
2017-09-08T18:31:30.957Z,3.00
2017-09-08T18:33:58.229Z,3.43
2017-09-08T18:36:25.543Z,3.33
2017-09-08T18:38:52.830Z,3.63
2017-09-08T18:41:20.123Z,3.10
2017-09-08T18:43:47.420Z,3.70
2017-09-08T18:46:14.687Z,3.20
2017-09-08T18:48:42.043Z,2.87
2017-09-08T18:51:09.327Z,3.53
2017-09-08T18:53:36.601Z,3.33
2017-09-08T18:56:03.897Z,3.33
2017-09-08T18:58:31.166Z,2.83
2017-09-08T19:00:58.467Z,2.97
2017-09-08T19:03:25.727Z,3.40
2017-09-08T19:05:53.020Z,3.60
2017-09-08T19:08:20.283Z,2.97
2017-09-08T19:10:47.902Z,3.40
2017-09-08T19:13:15.168Z,3.30
2017-09-08T19:15:42.445Z,2.80
2017-09-08T19:18:09.747Z,3.37
2017-09-08T19:20:37.050Z,3.33
2017-09-08T19:23:04.349Z,3.30
2017-09-08T19:25:31.608Z,2.87
2017-09-08T19:27:58.872Z,3.23
2017-09-08T19:30:26.165Z,2.97
2017-09-08T19:32:53.476Z,3.40
2017-09-08T19:35:20.739Z,3.93
2017-09-08T19:37:47.998Z,2.80
2017-09-08T19:40:15.392Z,3.47
2017-09-08T19:42:42.657Z,3.40
2017-09-08T19:45:09.958Z,3.80
2017-09-08T19:47:37.243Z,3.80
2017-09-08T19:50:04.499Z,3.60
2017-09-08T19:52:31.802Z,3.70
2017-09-08T19:54:59.063Z,3.07
2017-09-08T19:57:26.344Z,3.30
2017-09-08T19:59:53.630Z,3.70
2017-09-08T20:02:20.891Z,3.30
2017-09-08T20:04:48.206Z,3.80
2017-09-08T20:07:15.471Z,3.40
2017-09-08T20:09:42.735Z,3.63
2017-09-08T20:12:10.032Z,3.50
2017-09-08T20:14:37.297Z,3.57
2017-09-08T20:17:04.587Z,4.10
2017-09-08T20:19:31.879Z,3.43
2017-09-08T20:21:59.138Z,3.67
2017-09-08T20:24:26.480Z,3.53
2017-09-08T20:26:53.744Z,3.17
2017-09-08T20:29:21.004Z,3.70
2017-09-08T20:31:48.299Z,4.00
2017-09-08T20:34:15.568Z,3.60
2017-09-08T20:36:42.884Z,3.27
2017-09-08T20:39:10.182Z,3.73
2017-09-08T20:41:37.436Z,3.10
2017-09-08T20:44:04.734Z,3.63
2017-09-08T20:46:31.990Z,4.07
2017-09-08T20:48:59.259Z,3.30
2017-09-08T20:51:26.564Z,3.60
2017-09-08T20:53:53.844Z,3.93
2017-09-08T20:56:21.099Z,3.60
2017-09-08T20:58:48.404Z,4.43
2017-09-08T21:01:15.663Z,4.00
2017-09-08T21:03:42.920Z,3.23
2017-09-08T21:06:10.210Z,3.67
2017-09-08T21:08:37.579Z,3.50
2017-09-08T21:11:04.912Z,3.83
2017-09-08T21:13:32.180Z,3.53
2017-09-08T21:15:59.450Z,3.17
2017-09-08T21:18:26.776Z,3.67
2017-09-08T21:20:54.761Z,3.53
2017-09-08T21:23:22.042Z,3.03
2017-09-08T21:25:49.485Z,3.00
2017-09-08T21:28:16.786Z,2.80
2017-09-08T21:30:44.043Z,2.90
2017-09-08T21:33:11.308Z,3.40
2017-09-08T21:35:38.595Z,3.60
2017-09-08T21:38:05.864Z,2.80
2017-09-08T21:40:33.165Z,3.00
2017-09-08T21:43:00.468Z,3.07
2017-09-08T21:45:27.734Z,3.20
2017-09-08T21:47:55.007Z,3.00
2017-09-08T21:50:22.295Z,3.07
2017-09-08T21:52:50.526Z,2.67
2017-09-08T21:55:17.810Z,3.07
2017-09-08T21:57:45.066Z,2.87
2017-09-08T22:00:12.386Z,3.30
2017-09-08T22:02:39.644Z,2.60
2017-09-08T22:05:07.417Z,2.60
2017-09-08T22:07:35.040Z,3.43
2017-09-08T22:10:03.143Z,3.03
2017-09-08T22:12:31.466Z,2.97
2017-09-08T22:14:59.815Z,2.87
2017-09-08T22:17:27.243Z,2.17
2017-09-08T22:19:54.509Z,2.70
2017-09-08T22:22:21.795Z,2.97
2017-09-08T22:24:49.085Z,2.77
2017-09-08T22:27:16.370Z,3.13
2017-09-08T22:29:43.637Z,3.20
2017-09-08T22:32:10.929Z,3.03
2017-09-08T22:34:38.195Z,2.67
2017-09-08T22:37:05.487Z,2.70
2017-09-08T22:39:32.754Z,2.23
2017-09-08T22:42:00.047Z,2.40
2017-09-08T22:44:27.319Z,2.63
2017-09-08T22:46:54.579Z,3.00
2017-09-08T22:49:21.867Z,3.47
2017-09-08T22:51:49.122Z,2.80
2017-09-08T22:54:16.415Z,2.90
2017-09-08T22:56:43.679Z,3.27
2017-09-08T22:59:11.006Z,2.43
2017-09-08T23:01:38.234Z,3.10
2017-09-08T23:04:05.532Z,2.63
2017-09-08T23:06:32.786Z,3.40
2017-09-08T23:09:00.083Z,2.67
2017-09-08T23:11:27.344Z,2.90
2017-09-08T23:13:54.631Z,3.27
2017-09-08T23:16:21.929Z,2.50
2017-09-08T23:18:49.180Z,2.80
2017-09-08T23:21:16.472Z,3.70
2017-09-08T23:23:43.735Z,2.90
2017-09-08T23:26:11.029Z,2.73
2017-09-08T23:28:38.287Z,3.17
2017-09-08T23:31:05.566Z,2.70
2017-09-08T23:33:32.835Z,3.50
2017-09-08T23:36:00.158Z,2.60
